sensor_id;sensor_type;location;lat;lon;timestamp;P1;durP1;ratioP1;P2;durP2;ratioP2
71753;SDS011;59593;51.716;7.016;2022-08-21T00:02:17;8.63;;;3.63;;
71753;SDS011;59593;51.716;7.016;2022-08-21T00:04:45;10.02;;;3.70;;
71753;SDS011;59593;51.716;7.016;2022-08-21T00:07:11;7.32;;;3.53;;
71753;SDS011;59593;51.716;7.016;2022-08-21T00:09:36;10.82;;;3.58;;
71753;SDS011;59593;51.716;7.016;2022-08-21T00:12:02;10.98;;;3.85;;
71753;SDS011;59593;51.716;7.016;2022-08-21T00:14:28;9.07;;;3.65;;
71753;SDS011;59593;51.716;7.016;2022-08-21T00:16:54;8.77;;;3.90;;
71753;SDS011;59593;51.716;7.016;2022-08-21T00:19:20;9.02;;;3.78;;
71753;SDS011;59593;51.716;7.016;2022-08-21T00:21:49;10.07;;;3.90;;
71753;SDS011;59593;51.716;7.016;2022-08-21T00:24:19;9.23;;;4.20;;
71753;SDS011;59593;51.716;7.016;2022-08-21T00:26:46;7.68;;;4.00;;
71753;SDS011;59593;51.716;7.016;2022-08-21T00:29:12;7.47;;;4.03;;
71753;SDS011;59593;51.716;7.016;2022-08-21T00:31:38;8.25;;;3.90;;
71753;SDS011;59593;51.716;7.016;2022-08-21T00:34:05;7.72;;;3.78;;
71753;SDS011;59593;51.716;7.016;2022-08-21T00:36:32;8.93;;;3.65;;
71753;SDS011;59593;51.716;7.016;2022-08-21T00:38:58;9.68;;;3.88;;
71753;SDS011;59593;51.716;7.016;2022-08-21T00:41:24;8.02;;;3.75;;
71753;SDS011;59593;51.716;7.016;2022-08-21T00:43:50;7.93;;;3.33;;
71753;SDS011;59593;51.716;7.016;2022-08-21T00:46:17;8.02;;;3.80;;
71753;SDS011;59593;51.716;7.016;2022-08-21T00:48:42;10.23;;;3.63;;
71753;SDS011;59593;51.716;7.016;2022-08-21T00:51:10;6.32;;;3.80;;
71753;SDS011;59593;51.716;7.016;2022-08-21T00:53:43;5.85;;;3.53;;
71753;SDS011;59593;51.716;7.016;2022-08-21T00:56:10;8.75;;;3.83;;
71753;SDS011;59593;51.716;7.016;2022-08-21T00:58:37;6.80;;;3.70;;
71753;SDS011;59593;51.716;7.016;2022-08-21T01:01:05;9.23;;;4.13;;
71753;SDS011;59593;51.716;7.016;2022-08-21T01:03:32;5.57;;;3.45;;
71753;SDS011;59593;51.716;7.016;2022-08-21T01:05:58;8.40;;;3.72;;
71753;SDS011;59593;51.716;7.016;2022-08-21T01:08:24;6.63;;;3.95;;
71753;SDS011;59593;51.716;7.016;2022-08-21T01:10:50;6.03;;;3.72;;
71753;SDS011;59593;51.716;7.016;2022-08-21T01:13:18;8.75;;;4.10;;
71753;SDS011;59593;51.716;7.016;2022-08-21T01:15:45;9.00;;;4.28;;
71753;SDS011;59593;51.716;7.016;2022-08-21T01:18:13;8.60;;;3.83;;
71753;SDS011;59593;51.716;7.016;2022-08-21T01:20:41;6.65;;;3.90;;
71753;SDS011;59593;51.716;7.016;2022-08-21T01:23:10;8.07;;;3.78;;
71753;SDS011;59593;51.716;7.016;2022-08-21T01:25:36;9.52;;;3.80;;
71753;SDS011;59593;51.716;7.016;2022-08-21T01:28:09;6.15;;;3.47;;
71753;SDS011;59593;51.716;7.016;2022-08-21T01:30:37;7.97;;;3.55;;
71753;SDS011;59593;51.716;7.016;2022-08-21T01:33:04;7.88;;;3.85;;
71753;SDS011;59593;51.716;7.016;2022-08-21T01:35:30;7.32;;;3.65;;
71753;SDS011;59593;51.716;7.016;2022-08-21T01:37:56;5.93;;;3.60;;
71753;SDS011;59593;51.716;7.016;2022-08-21T01:40:22;6.35;;;3.47;;
71753;SDS011;59593;51.716;7.016;2022-08-21T01:42:47;6.00;;;3.80;;
71753;SDS011;59593;51.716;7.016;2022-08-21T01:45:14;7.20;;;3.72;;
71753;SDS011;59593;51.716;7.016;2022-08-21T01:47:41;9.45;;;4.03;;
71753;SDS011;59593;51.716;7.016;2022-08-21T01:50:09;5.95;;;3.70;;
71753;SDS011;59593;51.716;7.016;2022-08-21T01:52:37;8.07;;;3.72;;
71753;SDS011;59593;51.716;7.016;2022-08-21T01:55:03;6.57;;;3.40;;
71753;SDS011;59593;51.716;7.016;2022-08-21T01:57:30;8.63;;;4.10;;
71753;SDS011;59593;51.716;7.016;2022-08-21T01:59:58;8.38;;;4.00;;
71753;SDS011;59593;51.716;7.016;2022-08-21T02:02:24;5.63;;;3.67;;
71753;SDS011;59593;51.716;7.016;2022-08-21T02:04:49;6.00;;;3.80;;
71753;SDS011;59593;51.716;7.016;2022-08-21T02:07:15;7.13;;;3.58;;
71753;SDS011;59593;51.716;7.016;2022-08-21T02:09:41;9.52;;;3.97;;
71753;SDS011;59593;51.716;7.016;2022-08-21T02:12:07;8.38;;;3.70;;
71753;SDS011;59593;51.716;7.016;2022-08-21T02:14:34;7.38;;;3.60;;
71753;SDS011;59593;51.716;7.016;2022-08-21T02:17:00;7.50;;;4.03;;
71753;SDS011;59593;51.716;7.016;2022-08-21T02:19:26;6.38;;;3.65;;
71753;SDS011;59593;51.716;7.016;2022-08-21T02:21:51;5.07;;;3.85;;
71753;SDS011;59593;51.716;7.016;2022-08-21T02:24:17;7.72;;;3.97;;
71753;SDS011;59593;51.716;7.016;2022-08-21T02:26:43;7.63;;;3.80;;
71753;SDS011;59593;51.716;7.016;2022-08-21T02:29:09;7.63;;;3.70;;
71753;SDS011;59593;51.716;7.016;2022-08-21T02:31:34;5.18;;;3.50;;
71753;SDS011;59593;51.716;7.016;2022-08-21T02:34:00;7.65;;;4.00;;
71753;SDS011;59593;51.716;7.016;2022-08-21T02:36:26;5.70;;;3.50;;
71753;SDS011;59593;51.716;7.016;2022-08-21T02:38:52;6.60;;;3.63;;
71753;SDS011;59593;51.716;7.016;2022-08-21T02:41:19;5.13;;;3.60;;
71753;SDS011;59593;51.716;7.016;2022-08-21T02:43:45;7.80;;;3.70;;
71753;SDS011;59593;51.716;7.016;2022-08-21T02:46:12;7.53;;;3.90;;
71753;SDS011;59593;51.716;7.016;2022-08-21T02:48:39;4.43;;;3.83;;
71753;SDS011;59593;51.716;7.016;2022-08-21T02:51:07;6.43;;;3.78;;
71753;SDS011;59593;51.716;7.016;2022-08-21T02:53:35;7.07;;;3.78;;
71753;SDS011;59593;51.716;7.016;2022-08-21T02:56:02;8.90;;;3.90;;
71753;SDS011;59593;51.716;7.016;2022-08-21T02:58:31;7.95;;;3.95;;
71753;SDS011;59593;51.716;7.016;2022-08-21T03:01:02;8.95;;;4.00;;
71753;SDS011;59593;51.716;7.016;2022-08-21T03:03:28;7.70;;;4.40;;
71753;SDS011;59593;51.716;7.016;2022-08-21T03:05:54;6.15;;;3.78;;
71753;SDS011;59593;51.716;7.016;2022-08-21T03:08:21;7.20;;;4.00;;
71753;SDS011;59593;51.716;7.016;2022-08-21T03:10:48;7.22;;;3.63;;
71753;SDS011;59593;51.716;7.016;2022-08-21T03:13:15;8.68;;;4.13;;
71753;SDS011;59593;51.716;7.016;2022-08-21T03:15:43;7.22;;;3.80;;
71753;SDS011;59593;51.716;7.016;2022-08-21T03:18:09;6.70;;;4.07;;
71753;SDS011;59593;51.716;7.016;2022-08-21T03:20:36;5.15;;;4.22;;
71753;SDS011;59593;51.716;7.016;2022-08-21T03:23:03;5.82;;;3.88;;
71753;SDS011;59593;51.716;7.016;2022-08-21T03:25:30;7.43;;;4.38;;
71753;SDS011;59593;51.716;7.016;2022-08-21T03:28:02;8.57;;;4.22;;
71753;SDS011;59593;51.716;7.016;2022-08-21T03:30:29;9.40;;;4.05;;
71753;SDS011;59593;51.716;7.016;2022-08-21T03:32:56;5.72;;;3.88;;
71753;SDS011;59593;51.716;7.016;2022-08-21T03:35:23;6.40;;;3.85;;
71753;SDS011;59593;51.716;7.016;2022-08-21T03:37:49;6.95;;;4.57;;
71753;SDS011;59593;51.716;7.016;2022-08-21T03:40:16;5.85;;;4.03;;
71753;SDS011;59593;51.716;7.016;2022-08-21T03:42:43;5.90;;;3.97;;
71753;SDS011;59593;51.716;7.016;2022-08-21T03:45:12;7.28;;;4.25;;
71753;SDS011;59593;51.716;7.016;2022-08-21T03:47:50;8.32;;;4.57;;
71753;SDS011;59593;51.716;7.016;2022-08-21T03:50:24;7.05;;;4.68;;
71753;SDS011;59593;51.716;7.016;2022-08-21T03:52:51;7.13;;;4.38;;
71753;SDS011;59593;51.716;7.016;2022-08-21T03:55:17;7.03;;;3.97;;
71753;SDS011;59593;51.716;7.016;2022-08-21T03:57:42;6.50;;;4.03;;
71753;SDS011;59593;51.716;7.016;2022-08-21T04:00:09;7.28;;;4.13;;
71753;SDS011;59593;51.716;7.016;2022-08-21T04:02:37;8.40;;;4.20;;
71753;SDS011;59593;51.716;7.016;2022-08-21T04:05:05;5.20;;;3.78;;
71753;SDS011;59593;51.716;7.016;2022-08-21T04:07:32;6.47;;;4.35;;
71753;SDS011;59593;51.716;7.016;2022-08-21T04:09:58;6.88;;;4.30;;
71753;SDS011;59593;51.716;7.016;2022-08-21T04:12:23;8.52;;;4.03;;
71753;SDS011;59593;51.716;7.016;2022-08-21T04:14:49;7.05;;;4.43;;
71753;SDS011;59593;51.716;7.016;2022-08-21T04:17:16;6.50;;;4.07;;
71753;SDS011;59593;51.716;7.016;2022-08-21T04:19:42;8.05;;;4.32;;
71753;SDS011;59593;51.716;7.016;2022-08-21T04:22:08;7.03;;;3.90;;
71753;SDS011;59593;51.716;7.016;2022-08-21T04:24:34;7.13;;;4.22;;
71753;SDS011;59593;51.716;7.016;2022-08-21T04:26:59;6.63;;;4.20;;
71753;SDS011;59593;51.716;7.016;2022-08-21T04:29:25;7.05;;;4.07;;
71753;SDS011;59593;51.716;7.016;2022-08-21T04:31:51;6.30;;;4.05;;
71753;SDS011;59593;51.716;7.016;2022-08-21T04:34:17;7.50;;;3.88;;
71753;SDS011;59593;51.716;7.016;2022-08-21T04:36:43;4.78;;;3.83;;
71753;SDS011;59593;51.716;7.016;2022-08-21T04:39:09;8.63;;;4.32;;
71753;SDS011;59593;51.716;7.016;2022-08-21T04:41:34;7.68;;;4.55;;
71753;SDS011;59593;51.716;7.016;2022-08-21T04:44:01;5.85;;;4.25;;
71753;SDS011;59593;51.716;7.016;2022-08-21T04:46:27;10.45;;;4.30;;
71753;SDS011;59593;51.716;7.016;2022-08-21T04:48:53;6.20;;;4.20;;
71753;SDS011;59593;51.716;7.016;2022-08-21T04:51:21;7.78;;;4.47;;
71753;SDS011;59593;51.716;7.016;2022-08-21T04:54:17;7.82;;;4.63;;
71753;SDS011;59593;51.716;7.016;2022-08-21T04:56:45;11.73;;;4.60;;
71753;SDS011;59593;51.716;7.016;2022-08-21T04:59:15;8.43;;;4.47;;
71753;SDS011;59593;51.716;7.016;2022-08-21T05:01:46;9.85;;;4.40;;
71753;SDS011;59593;51.716;7.016;2022-08-21T05:04:13;7.85;;;4.70;;
71753;SDS011;59593;51.716;7.016;2022-08-21T05:06:41;6.45;;;4.30;;
71753;SDS011;59593;51.716;7.016;2022-08-21T05:09:09;5.80;;;3.90;;
71753;SDS011;59593;51.716;7.016;2022-08-21T05:11:39;5.65;;;3.90;;
71753;SDS011;59593;51.716;7.016;2022-08-21T05:14:05;6.18;;;4.53;;
71753;SDS011;59593;51.716;7.016;2022-08-21T05:16:31;8.70;;;4.82;;
71753;SDS011;59593;51.716;7.016;2022-08-21T05:18:56;6.22;;;4.35;;
71753;SDS011;59593;51.716;7.016;2022-08-21T05:21:22;8.07;;;5.57;;
71753;SDS011;59593;51.716;7.016;2022-08-21T05:23:47;9.88;;;5.70;;
71753;SDS011;59593;51.716;7.016;2022-08-21T05:26:13;9.60;;;5.30;;
71753;SDS011;59593;51.716;7.016;2022-08-21T05:28:38;6.28;;;5.28;;
71753;SDS011;59593;51.716;7.016;2022-08-21T05:31:04;10.13;;;5.53;;
71753;SDS011;59593;51.716;7.016;2022-08-21T05:33:30;8.55;;;5.28;;
71753;SDS011;59593;51.716;7.016;2022-08-21T05:35:55;8.80;;;5.70;;
71753;SDS011;59593;51.716;7.016;2022-08-21T05:38:22;12.30;;;7.03;;
71753;SDS011;59593;51.716;7.016;2022-08-21T05:40:52;10.63;;;7.13;;
71753;SDS011;59593;51.716;7.016;2022-08-21T05:43:18;8.93;;;7.03;;
71753;SDS011;59593;51.716;7.016;2022-08-21T05:45:43;10.30;;;6.72;;
71753;SDS011;59593;51.716;7.016;2022-08-21T05:50:37;11.18;;;8.00;;
71753;SDS011;59593;51.716;7.016;2022-08-21T05:53:03;11.27;;;7.75;;
71753;SDS011;59593;51.716;7.016;2022-08-21T05:55:29;13.98;;;8.32;;
71753;SDS011;59593;51.716;7.016;2022-08-21T05:57:54;11.75;;;8.48;;
71753;SDS011;59593;51.716;7.016;2022-08-21T06:00:20;12.80;;;8.45;;
71753;SDS011;59593;51.716;7.016;2022-08-21T06:02:48;15.15;;;9.25;;
71753;SDS011;59593;51.716;7.016;2022-08-21T06:05:14;14.57;;;9.00;;
71753;SDS011;59593;51.716;7.016;2022-08-21T06:07:40;14.73;;;9.75;;
71753;SDS011;59593;51.716;7.016;2022-08-21T06:10:06;15.23;;;9.23;;
71753;SDS011;59593;51.716;7.016;2022-08-21T06:12:32;15.45;;;9.80;;
71753;SDS011;59593;51.716;7.016;2022-08-21T06:14:58;15.93;;;10.05;;
71753;SDS011;59593;51.716;7.016;2022-08-21T06:17:23;17.27;;;10.57;;
71753;SDS011;59593;51.716;7.016;2022-08-21T06:19:52;15.57;;;10.15;;
71753;SDS011;59593;51.716;7.016;2022-08-21T06:22:19;15.85;;;10.13;;
71753;SDS011;59593;51.716;7.016;2022-08-21T06:24:45;14.32;;;9.88;;
71753;SDS011;59593;51.716;7.016;2022-08-21T06:27:11;16.73;;;10.32;;
71753;SDS011;59593;51.716;7.016;2022-08-21T06:29:36;14.80;;;10.70;;
71753;SDS011;59593;51.716;7.016;2022-08-21T06:32:03;18.33;;;10.40;;
71753;SDS011;59593;51.716;7.016;2022-08-21T06:34:29;14.55;;;10.23;;
71753;SDS011;59593;51.716;7.016;2022-08-21T06:36:54;13.27;;;9.65;;
71753;SDS011;59593;51.716;7.016;2022-08-21T06:39:21;15.48;;;10.18;;
71753;SDS011;59593;51.716;7.016;2022-08-21T06:41:46;18.67;;;10.43;;
71753;SDS011;59593;51.716;7.016;2022-08-21T06:44:15;16.20;;;10.93;;
71753;SDS011;59593;51.716;7.016;2022-08-21T06:46:41;17.77;;;10.98;;
71753;SDS011;59593;51.716;7.016;2022-08-21T06:49:07;16.85;;;10.15;;
71753;SDS011;59593;51.716;7.016;2022-08-21T06:51:32;20.77;;;10.00;;
71753;SDS011;59593;51.716;7.016;2022-08-21T06:53:58;17.80;;;10.02;;
71753;SDS011;59593;51.716;7.016;2022-08-21T06:56:23;19.15;;;10.43;;
71753;SDS011;59593;51.716;7.016;2022-08-21T06:58:49;15.32;;;9.93;;
71753;SDS011;59593;51.716;7.016;2022-08-21T07:01:15;19.40;;;10.52;;
71753;SDS011;59593;51.716;7.016;2022-08-21T07:03:41;16.17;;;10.07;;
71753;SDS011;59593;51.716;7.016;2022-08-21T07:06:08;16.63;;;10.13;;
71753;SDS011;59593;51.716;7.016;2022-08-21T07:08:35;20.77;;;10.88;;
71753;SDS011;59593;51.716;7.016;2022-08-21T07:11:03;18.77;;;9.60;;
71753;SDS011;59593;51.716;7.016;2022-08-21T07:13:33;16.83;;;9.70;;
71753;SDS011;59593;51.716;7.016;2022-08-21T07:15:59;15.27;;;8.63;;
71753;SDS011;59593;51.716;7.016;2022-08-21T07:18:25;17.50;;;8.82;;
71753;SDS011;59593;51.716;7.016;2022-08-21T07:20:50;19.08;;;8.90;;
71753;SDS011;59593;51.716;7.016;2022-08-21T07:23:22;14.85;;;8.15;;
71753;SDS011;59593;51.716;7.016;2022-08-21T07:25:54;14.85;;;8.25;;
71753;SDS011;59593;51.716;7.016;2022-08-21T07:28:19;13.68;;;7.80;;
71753;SDS011;59593;51.716;7.016;2022-08-21T07:30:45;14.55;;;7.90;;
71753;SDS011;59593;51.716;7.016;2022-08-21T07:33:15;14.73;;;7.78;;
71753;SDS011;59593;51.716;7.016;2022-08-21T07:35:41;16.58;;;6.00;;
71753;SDS011;59593;51.716;7.016;2022-08-21T07:38:07;15.98;;;5.30;;
71753;SDS011;59593;51.716;7.016;2022-08-21T07:40:32;11.57;;;5.72;;
71753;SDS011;59593;51.716;7.016;2022-08-21T07:42:58;11.07;;;6.82;;
71753;SDS011;59593;51.716;7.016;2022-08-21T07:45:24;12.48;;;5.20;;
71753;SDS011;59593;51.716;7.016;2022-08-21T07:47:50;14.35;;;5.47;;
71753;SDS011;59593;51.716;7.016;2022-08-21T07:50:16;10.82;;;5.30;;
71753;SDS011;59593;51.716;7.016;2022-08-21T07:52:43;11.52;;;4.68;;
71753;SDS011;59593;51.716;7.016;2022-08-21T07:55:10;9.95;;;5.10;;
71753;SDS011;59593;51.716;7.016;2022-08-21T07:57:38;8.02;;;4.50;;
71753;SDS011;59593;51.716;7.016;2022-08-21T08:00:04;10.98;;;3.83;;
71753;SDS011;59593;51.716;7.016;2022-08-21T08:02:35;11.32;;;3.45;;
71753;SDS011;59593;51.716;7.016;2022-08-21T08:05:05;7.53;;;3.40;;
71753;SDS011;59593;51.716;7.016;2022-08-21T08:07:32;11.20;;;3.90;;
71753;SDS011;59593;51.716;7.016;2022-08-21T08:09:59;10.73;;;4.20;;
71753;SDS011;59593;51.716;7.016;2022-08-21T08:12:25;10.40;;;3.40;;
71753;SDS011;59593;51.716;7.016;2022-08-21T08:14:57;8.52;;;3.58;;
71753;SDS011;59593;51.716;7.016;2022-08-21T08:17:25;9.98;;;3.92;;
71753;SDS011;59593;51.716;7.016;2022-08-21T08:19:51;8.38;;;3.92;;
71753;SDS011;59593;51.716;7.016;2022-08-21T08:22:19;8.70;;;3.72;;
71753;SDS011;59593;51.716;7.016;2022-08-21T08:24:48;8.95;;;3.90;;
71753;SDS011;59593;51.716;7.016;2022-08-21T08:27:15;7.72;;;3.63;;
71753;SDS011;59593;51.716;7.016;2022-08-21T08:29:41;8.90;;;3.50;;
71753;SDS011;59593;51.716;7.016;2022-08-21T08:32:07;9.25;;;3.40;;
71753;SDS011;59593;51.716;7.016;2022-08-21T08:34:33;9.88;;;3.70;;
71753;SDS011;59593;51.716;7.016;2022-08-21T08:36:59;8.48;;;3.97;;
71753;SDS011;59593;51.716;7.016;2022-08-21T08:39:26;9.02;;;3.80;;
71753;SDS011;59593;51.716;7.016;2022-08-21T08:41:55;8.68;;;3.53;;
71753;SDS011;59593;51.716;7.016;2022-08-21T08:44:24;7.72;;;2.42;;
71753;SDS011;59593;51.716;7.016;2022-08-21T08:46:51;8.93;;;2.97;;
71753;SDS011;59593;51.716;7.016;2022-08-21T08:50:02;6.78;;;2.60;;
71753;SDS011;59593;51.716;7.016;2022-08-21T08:52:20;8.93;;;2.40;;
71753;SDS011;59593;51.716;7.016;2022-08-21T08:55:17;7.65;;;2.67;;
71753;SDS011;59593;51.716;7.016;2022-08-21T08:57:51;8.02;;;2.53;;
71753;SDS011;59593;51.716;7.016;2022-08-21T09:00:20;6.78;;;2.53;;
71753;SDS011;59593;51.716;7.016;2022-08-21T09:02:47;8.57;;;2.40;;
71753;SDS011;59593;51.716;7.016;2022-08-21T09:05:59;4.93;;;2.13;;
71753;SDS011;59593;51.716;7.016;2022-08-21T09:11:04;5.60;;;1.98;;
71753;SDS011;59593;51.716;7.016;2022-08-21T09:13:50;6.05;;;2.08;;
71753;SDS011;59593;51.716;7.016;2022-08-21T09:16:38;5.35;;;2.17;;
71753;SDS011;59593;51.716;7.016;2022-08-21T09:27:37;7.80;;;2.22;;
71753;SDS011;59593;51.716;7.016;2022-08-21T09:30:04;2.47;;;1.50;;
71753;SDS011;59593;51.716;7.016;2022-08-21T09:32:31;4.43;;;1.70;;
71753;SDS011;59593;51.716;7.016;2022-08-21T09:37:25;5.97;;;2.00;;
71753;SDS011;59593;51.716;7.016;2022-08-21T09:39:53;4.95;;;2.03;;
71753;SDS011;59593;51.716;7.016;2022-08-21T09:42:22;5.53;;;2.10;;
71753;SDS011;59593;51.716;7.016;2022-08-21T09:45:09;4.97;;;1.80;;
71753;SDS011;59593;51.716;7.016;2022-08-21T09:47:38;7.07;;;2.20;;
71753;SDS011;59593;51.716;7.016;2022-08-21T09:50:12;4.35;;;2.00;;
71753;SDS011;59593;51.716;7.016;2022-08-21T09:52:45;5.25;;;2.00;;
71753;SDS011;59593;51.716;7.016;2022-08-21T09:55:15;7.95;;;2.17;;
71753;SDS011;59593;51.716;7.016;2022-08-21T09:58:04;6.78;;;1.98;;
71753;SDS011;59593;51.716;7.016;2022-08-21T10:00:31;4.97;;;1.90;;
71753;SDS011;59593;51.716;7.016;2022-08-21T10:03:13;5.60;;;1.88;;
71753;SDS011;59593;51.716;7.016;2022-08-21T10:06:03;5.40;;;1.92;;
71753;SDS011;59593;51.716;7.016;2022-08-21T10:08:33;3.97;;;1.60;;
71753;SDS011;59593;51.716;7.016;2022-08-21T10:11:08;6.63;;;1.88;;
71753;SDS011;59593;51.716;7.016;2022-08-21T10:24:57;4.55;;;1.60;;
71753;SDS011;59593;51.716;7.016;2022-08-21T10:27:36;4.20;;;1.55;;
71753;SDS011;59593;51.716;7.016;2022-08-21T10:30:32;4.68;;;2.25;;
71753;SDS011;59593;51.716;7.016;2022-08-21T10:41:28;4.63;;;2.10;;
71753;SDS011;59593;51.716;7.016;2022-08-21T10:46:53;6.82;;;1.70;;
71753;SDS011;59593;51.716;7.016;2022-08-21T10:52:36;5.43;;;1.77;;
71753;SDS011;59593;51.716;7.016;2022-08-21T10:57:41;4.30;;;1.70;;
71753;SDS011;59593;51.716;7.016;2022-08-21T11:00:12;6.07;;;1.80;;
71753;SDS011;59593;51.716;7.016;2022-08-21T11:02:42;5.32;;;1.90;;
71753;SDS011;59593;51.716;7.016;2022-08-21T11:07:58;6.55;;;1.85;;
71753;SDS011;59593;51.716;7.016;2022-08-21T11:10:27;6.60;;;2.08;;
71753;SDS011;59593;51.716;7.016;2022-08-21T11:13:02;6.30;;;2.00;;
71753;SDS011;59593;51.716;7.016;2022-08-21T11:15:38;6.53;;;2.00;;
71753;SDS011;59593;51.716;7.016;2022-08-21T11:18:24;6.35;;;1.90;;
71753;SDS011;59593;51.716;7.016;2022-08-21T11:29:31;5.80;;;1.85;;
71753;SDS011;59593;51.716;7.016;2022-08-21T11:43:12;6.88;;;1.65;;
71753;SDS011;59593;51.716;7.016;2022-08-21T11:48:45;4.47;;;1.60;;
71753;SDS011;59593;51.716;7.016;2022-08-21T11:51:47;5.80;;;1.70;;
71753;SDS011;59593;51.716;7.016;2022-08-21T11:56:58;4.45;;;1.80;;
71753;SDS011;59593;51.716;7.016;2022-08-21T11:59:33;8.30;;;2.05;;
71753;SDS011;59593;51.716;7.016;2022-08-21T12:02:12;5.28;;;1.95;;
71753;SDS011;59593;51.716;7.016;2022-08-21T12:04:48;6.05;;;1.75;;
71753;SDS011;59593;51.716;7.016;2022-08-21T12:07:29;7.45;;;2.30;;
71753;SDS011;59593;51.716;7.016;2022-08-21T12:10:04;5.82;;;1.90;;
71753;SDS011;59593;51.716;7.016;2022-08-21T12:12:38;5.18;;;2.08;;
71753;SDS011;59593;51.716;7.016;2022-08-21T12:17:35;6.40;;;1.60;;
71753;SDS011;59593;51.716;7.016;2022-08-21T12:20:56;3.47;;;1.50;;
71753;SDS011;59593;51.716;7.016;2022-08-21T12:25:59;5.65;;;1.80;;
71753;SDS011;59593;51.716;7.016;2022-08-21T12:28:27;5.40;;;1.70;;
71753;SDS011;59593;51.716;7.016;2022-08-21T12:30:55;5.53;;;1.90;;
71753;SDS011;59593;51.716;7.016;2022-08-21T12:33:30;7.22;;;1.98;;
71753;SDS011;59593;51.716;7.016;2022-08-21T12:36:10;5.97;;;1.70;;
71753;SDS011;59593;51.716;7.016;2022-08-21T12:38:43;4.32;;;1.90;;
71753;SDS011;59593;51.716;7.016;2022-08-21T12:41:19;6.65;;;2.13;;
71753;SDS011;59593;51.716;7.016;2022-08-21T12:43:50;7.18;;;2.28;;
71753;SDS011;59593;51.716;7.016;2022-08-21T12:46:29;3.88;;;1.73;;
71753;SDS011;59593;51.716;7.016;2022-08-21T12:49:03;4.32;;;1.50;;
71753;SDS011;59593;51.716;7.016;2022-08-21T12:51:48;4.32;;;1.80;;
71753;SDS011;59593;51.716;7.016;2022-08-21T12:54:22;5.30;;;1.60;;
71753;SDS011;59593;51.716;7.016;2022-08-21T12:56:58;4.97;;;1.98;;
71753;SDS011;59593;51.716;7.016;2022-08-21T12:59:25;5.45;;;1.73;;
71753;SDS011;59593;51.716;7.016;2022-08-21T13:01:51;3.53;;;1.65;;
71753;SDS011;59593;51.716;7.016;2022-08-21T13:04:21;7.60;;;1.60;;
71753;SDS011;59593;51.716;7.016;2022-08-21T13:06:51;5.93;;;1.85;;
71753;SDS011;59593;51.716;7.016;2022-08-21T13:09:24;4.07;;;1.30;;
71753;SDS011;59593;51.716;7.016;2022-08-21T13:11:52;5.03;;;1.60;;
71753;SDS011;59593;51.716;7.016;2022-08-21T13:14:29;5.70;;;1.42;;
71753;SDS011;59593;51.716;7.016;2022-08-21T13:17:06;4.00;;;1.65;;
71753;SDS011;59593;51.716;7.016;2022-08-21T13:19:35;3.25;;;1.40;;
71753;SDS011;59593;51.716;7.016;2022-08-21T13:22:01;4.40;;;1.77;;
71753;SDS011;59593;51.716;7.016;2022-08-21T13:24:32;5.00;;;1.70;;
71753;SDS011;59593;51.716;7.016;2022-08-21T13:26:59;5.75;;;1.50;;
71753;SDS011;59593;51.716;7.016;2022-08-21T13:29:30;3.08;;;1.40;;
71753;SDS011;59593;51.716;7.016;2022-08-21T13:32:00;5.30;;;1.50;;
71753;SDS011;59593;51.716;7.016;2022-08-21T13:34:31;3.90;;;1.40;;
71753;SDS011;59593;51.716;7.016;2022-08-21T13:37:02;4.15;;;1.50;;
71753;SDS011;59593;51.716;7.016;2022-08-21T13:39:30;2.25;;;1.40;;
71753;SDS011;59593;51.716;7.016;2022-08-21T13:41:58;6.15;;;1.58;;
71753;SDS011;59593;51.716;7.016;2022-08-21T13:44:35;5.55;;;1.63;;
71753;SDS011;59593;51.716;7.016;2022-08-21T13:47:06;3.95;;;1.33;;
71753;SDS011;59593;51.716;7.016;2022-08-21T13:49:37;3.15;;;1.30;;
71753;SDS011;59593;51.716;7.016;2022-08-21T13:52:13;7.55;;;1.48;;
71753;SDS011;59593;51.716;7.016;2022-08-21T13:54:41;2.42;;;1.13;;
71753;SDS011;59593;51.716;7.016;2022-08-21T13:57:26;3.20;;;1.48;;
71753;SDS011;59593;51.716;7.016;2022-08-21T14:00:09;2.92;;;1.33;;
71753;SDS011;59593;51.716;7.016;2022-08-21T14:02:38;2.83;;;1.30;;
71753;SDS011;59593;51.716;7.016;2022-08-21T14:05:06;4.15;;;1.70;;
71753;SDS011;59593;51.716;7.016;2022-08-21T14:07:39;3.90;;;1.35;;
71753;SDS011;59593;51.716;7.016;2022-08-21T14:10:07;3.50;;;1.38;;
71753;SDS011;59593;51.716;7.016;2022-08-21T14:12:46;3.58;;;1.73;;
71753;SDS011;59593;51.716;7.016;2022-08-21T14:15:16;5.75;;;1.52;;
71753;SDS011;59593;51.716;7.016;2022-08-21T14:17:44;3.17;;;1.42;;
71753;SDS011;59593;51.716;7.016;2022-08-21T14:20:12;3.40;;;1.27;;
71753;SDS011;59593;51.716;7.016;2022-08-21T14:22:52;4.22;;;1.30;;
71753;SDS011;59593;51.716;7.016;2022-08-21T14:27:53;3.88;;;1.40;;
71753;SDS011;59593;51.716;7.016;2022-08-21T14:32:55;5.07;;;1.50;;
71753;SDS011;59593;51.716;7.016;2022-08-21T14:35:21;6.53;;;1.67;;
71753;SDS011;59593;51.716;7.016;2022-08-21T14:37:47;3.40;;;1.48;;
71753;SDS011;59593;51.716;7.016;2022-08-21T14:40:15;5.97;;;1.75;;
71753;SDS011;59593;51.716;7.016;2022-08-21T14:42:42;5.38;;;1.60;;
71753;SDS011;59593;51.716;7.016;2022-08-21T14:45:19;5.53;;;1.42;;
71753;SDS011;59593;51.716;7.016;2022-08-21T14:47:53;3.75;;;1.50;;
71753;SDS011;59593;51.716;7.016;2022-08-21T14:50:19;2.97;;;1.30;;
71753;SDS011;59593;51.716;7.016;2022-08-21T14:52:45;5.88;;;1.60;;
71753;SDS011;59593;51.716;7.016;2022-08-21T14:55:11;5.65;;;1.60;;
71753;SDS011;59593;51.716;7.016;2022-08-21T14:57:39;5.22;;;1.70;;
71753;SDS011;59593;51.716;7.016;2022-08-21T15:00:13;2.70;;;1.42;;
71753;SDS011;59593;51.716;7.016;2022-08-21T15:02:41;4.18;;;1.50;;
71753;SDS011;59593;51.716;7.016;2022-08-21T15:05:07;4.95;;;1.25;;
71753;SDS011;59593;51.716;7.016;2022-08-21T15:07:33;4.90;;;1.40;;
71753;SDS011;59593;51.716;7.016;2022-08-21T15:09:59;4.97;;;1.63;;
71753;SDS011;59593;51.716;7.016;2022-08-21T15:12:24;3.67;;;1.42;;
71753;SDS011;59593;51.716;7.016;2022-08-21T15:14:50;6.88;;;1.73;;
71753;SDS011;59593;51.716;7.016;2022-08-21T15:17:17;6.53;;;1.52;;
71753;SDS011;59593;51.716;7.016;2022-08-21T15:19:43;5.20;;;1.50;;
71753;SDS011;59593;51.716;7.016;2022-08-21T15:22:09;4.32;;;1.40;;
71753;SDS011;59593;51.716;7.016;2022-08-21T15:24:34;2.85;;;1.33;;
71753;SDS011;59593;51.716;7.016;2022-08-21T15:27:01;4.88;;;1.50;;
71753;SDS011;59593;51.716;7.016;2022-08-21T15:29:28;5.35;;;1.50;;
71753;SDS011;59593;51.716;7.016;2022-08-21T15:31:56;5.10;;;1.40;;
71753;SDS011;59593;51.716;7.016;2022-08-21T15:34:25;4.95;;;1.58;;
71753;SDS011;59593;51.716;7.016;2022-08-21T15:36:53;7.95;;;1.65;;
71753;SDS011;59593;51.716;7.016;2022-08-21T15:39:20;5.18;;;1.60;;
71753;SDS011;59593;51.716;7.016;2022-08-21T15:41:46;4.25;;;1.73;;
71753;SDS011;59593;51.716;7.016;2022-08-21T15:44:12;3.10;;;1.50;;
71753;SDS011;59593;51.716;7.016;2022-08-21T15:46:39;4.72;;;1.50;;
71753;SDS011;59593;51.716;7.016;2022-08-21T15:49:07;4.38;;;1.33;;
71753;SDS011;59593;51.716;7.016;2022-08-21T15:51:33;3.03;;;1.60;;
71753;SDS011;59593;51.716;7.016;2022-08-21T15:53:59;5.00;;;1.50;;
71753;SDS011;59593;51.716;7.016;2022-08-21T15:56:26;3.72;;;1.38;;
71753;SDS011;59593;51.716;7.016;2022-08-21T15:59:01;3.22;;;1.50;;
71753;SDS011;59593;51.716;7.016;2022-08-21T16:01:32;4.43;;;1.55;;
71753;SDS011;59593;51.716;7.016;2022-08-21T16:03:59;3.35;;;1.35;;
71753;SDS011;59593;51.716;7.016;2022-08-21T16:06:25;7.80;;;1.50;;
71753;SDS011;59593;51.716;7.016;2022-08-21T16:08:50;4.72;;;1.70;;
71753;SDS011;59593;51.716;7.016;2022-08-21T16:11:16;5.53;;;1.77;;
71753;SDS011;59593;51.716;7.016;2022-08-21T16:13:42;5.28;;;1.45;;
71753;SDS011;59593;51.716;7.016;2022-08-21T16:16:10;5.15;;;1.60;;
71753;SDS011;59593;51.716;7.016;2022-08-21T16:18:39;4.05;;;1.20;;
71753;SDS011;59593;51.716;7.016;2022-08-21T16:21:05;2.78;;;1.30;;